sensor_id;sensor_type;location;lat;lon;timestamp;P1;durP1;ratioP1;P2;durP2;ratioP2
36221;SDS011;22266;52.340;4.962;2022-09-20T00:01:20;1.00;;;1.00;;
36221;SDS011;22266;52.340;4.962;2022-09-20T00:03:51;1.00;;;1.00;;
36221;SDS011;22266;52.340;4.962;2022-09-20T00:06:20;2.67;;;2.00;;
36221;SDS011;22266;52.340;4.962;2022-09-20T00:08:49;2.00;;;2.00;;
36221;SDS011;22266;52.340;4.962;2022-09-20T00:11:17;1.00;;;1.00;;
36221;SDS011;22266;52.340;4.962;2022-09-20T00:13:46;1.00;;;1.00;;
36221;SDS011;22266;52.340;4.962;2022-09-20T00:16:19;0.67;;;0.67;;
36221;SDS011;22266;52.340;4.962;2022-09-20T00:18:52;2.00;;;1.00;;
36221;SDS011;22266;52.340;4.962;2022-09-20T00:21:21;1.00;;;1.00;;
36221;SDS011;22266;52.340;4.962;2022-09-20T00:23:52;1.33;;;1.33;;
36221;SDS011;22266;52.340;4.962;2022-09-20T00:26:19;0.67;;;0.67;;
36221;SDS011;22266;52.340;4.962;2022-09-20T00:28:46;2.00;;;0.00;;
36221;SDS011;22266;52.340;4.962;2022-09-20T00:31:13;2.00;;;1.67;;
36221;SDS011;22266;52.340;4.962;2022-09-20T00:33:40;1.00;;;0.00;;
36221;SDS011;22266;52.340;4.962;2022-09-20T00:36:25;1.00;;;1.00;;
36221;SDS011;22266;52.340;4.962;2022-09-20T00:38:58;0.00;;;0.00;;
36221;SDS011;22266;52.340;4.962;2022-09-20T00:41:27;0.00;;;0.00;;
36221;SDS011;22266;52.340;4.962;2022-09-20T00:43:55;1.00;;;1.00;;
36221;SDS011;22266;52.340;4.962;2022-09-20T00:46:23;1.00;;;1.00;;
36221;SDS011;22266;52.340;4.962;2022-09-20T00:48:55;0.00;;;0.00;;
36221;SDS011;22266;52.340;4.962;2022-09-20T00:51:27;2.00;;;1.00;;
36221;SDS011;22266;52.340;4.962;2022-09-20T00:53:58;0.33;;;0.33;;
36221;SDS011;22266;52.340;4.962;2022-09-20T00:56:28;3.00;;;1.33;;
36221;SDS011;22266;52.340;4.962;2022-09-20T01:01:48;0.33;;;0.33;;
36221;SDS011;22266;52.340;4.962;2022-09-20T01:04:20;1.00;;;1.00;;
36221;SDS011;22266;52.340;4.962;2022-09-20T01:06:52;1.00;;;1.00;;
36221;SDS011;22266;52.340;4.962;2022-09-20T01:09:21;0.00;;;0.00;;
36221;SDS011;22266;52.340;4.962;2022-09-20T01:11:48;1.67;;;1.00;;
36221;SDS011;22266;52.340;4.962;2022-09-20T01:14:17;2.00;;;1.00;;
36221;SDS011;22266;52.340;4.962;2022-09-20T01:16:45;0.00;;;0.00;;
36221;SDS011;22266;52.340;4.962;2022-09-20T01:19:47;1.67;;;1.00;;
36221;SDS011;22266;52.340;4.962;2022-09-20T01:22:24;1.00;;;1.00;;
36221;SDS011;22266;52.340;4.962;2022-09-20T01:25:00;0.00;;;0.00;;
36221;SDS011;22266;52.340;4.962;2022-09-20T01:30:12;1.33;;;0.67;;
36221;SDS011;22266;52.340;4.962;2022-09-20T01:35:18;0.00;;;0.00;;
36221;SDS011;22266;52.340;4.962;2022-09-20T01:40:54;0.00;;;0.00;;
36221;SDS011;22266;52.340;4.962;2022-09-20T01:54:36;1.00;;;0.00;;
36221;SDS011;22266;52.340;4.962;2022-09-20T01:57:32;0.00;;;0.00;;
36221;SDS011;22266;52.340;4.962;2022-09-20T02:17:43;1.00;;;0.00;;
36221;SDS011;22266;52.340;4.962;2022-09-20T02:26:10;0.00;;;0.00;;
36221;SDS011;22266;52.340;4.962;2022-09-20T02:29:21;0.00;;;0.00;;
36221;SDS011;22266;52.340;4.962;2022-09-20T02:32:11;0.00;;;0.00;;
36221;SDS011;22266;52.340;4.962;2022-09-20T02:40:43;0.25;;;0.25;;
36221;SDS011;22266;52.340;4.962;2022-09-20T02:48:54;0.00;;;0.00;;
36221;SDS011;22266;52.340;4.962;2022-09-20T02:51:39;0.25;;;0.25;;
36221;SDS011;22266;52.340;4.962;2022-09-20T02:54:26;0.00;;;0.00;;
36221;SDS011;22266;52.340;4.962;2022-09-20T02:57:25;0.67;;;0.67;;
36221;SDS011;22266;52.340;4.962;2022-09-20T03:00:22;0.00;;;0.00;;
36221;SDS011;22266;52.340;4.962;2022-09-20T03:03:12;1.00;;;1.00;;
36221;SDS011;22266;52.340;4.962;2022-09-20T03:09:02;1.00;;;1.00;;
36221;SDS011;22266;52.340;4.962;2022-09-20T03:11:47;1.00;;;1.00;;
36221;SDS011;22266;52.340;4.962;2022-09-20T03:14:23;0.00;;;0.00;;
36221;SDS011;22266;52.340;4.962;2022-09-20T03:22:27;1.00;;;0.00;;
36221;SDS011;22266;52.340;4.962;2022-09-20T03:27:53;0.00;;;0.00;;
36221;SDS011;22266;52.340;4.962;2022-09-20T03:41:49;0.00;;;0.00;;
36221;SDS011;22266;52.340;4.962;2022-09-20T03:58:56;0.33;;;0.33;;
36221;SDS011;22266;52.340;4.962;2022-09-20T04:01:59;1.00;;;1.00;;
36221;SDS011;22266;52.340;4.962;2022-09-20T04:04:48;0.00;;;0.00;;
36221;SDS011;22266;52.340;4.962;2022-09-20T04:16:19;0.00;;;0.00;;
36221;SDS011;22266;52.340;4.962;2022-09-20T04:19:11;0.00;;;0.00;;
36221;SDS011;22266;52.340;4.962;2022-09-20T04:21:58;0.75;;;0.25;;
36221;SDS011;22266;52.340;4.962;2022-09-20T04:27:00;0.00;;;0.00;;
36221;SDS011;22266;52.340;4.962;2022-09-20T04:29:35;0.00;;;0.00;;
36221;SDS011;22266;52.340;4.962;2022-09-20T04:38:19;1.50;;;1.50;;
36221;SDS011;22266;52.340;4.962;2022-09-20T04:44:21;1.00;;;1.00;;
36221;SDS011;22266;52.340;4.962;2022-09-20T04:49:27;1.25;;;1.25;;
36221;SDS011;22266;52.340;4.962;2022-09-20T05:00:47;0.75;;;0.75;;
36221;SDS011;22266;52.340;4.962;2022-09-20T05:03:31;1.00;;;1.00;;
36221;SDS011;22266;52.340;4.962;2022-09-20T05:12:26;1.00;;;1.00;;
36221;SDS011;22266;52.340;4.962;2022-09-20T05:15:04;1.50;;;1.00;;
36221;SDS011;22266;52.340;4.962;2022-09-20T05:17:37;1.00;;;1.00;;
36221;SDS011;22266;52.340;4.962;2022-09-20T05:28:29;0.00;;;0.00;;
36221;SDS011;22266;52.340;4.962;2022-09-20T05:31:13;2.00;;;2.00;;
36221;SDS011;22266;52.340;4.962;2022-09-20T05:36:56;0.50;;;0.50;;
36221;SDS011;22266;52.340;4.962;2022-09-20T05:39:38;3.00;;;1.75;;
36221;SDS011;22266;52.340;4.962;2022-09-20T05:42:15;1.00;;;1.00;;
36221;SDS011;22266;52.340;4.962;2022-09-20T05:47:56;1.50;;;1.50;;
36221;SDS011;22266;52.340;4.962;2022-09-20T05:53:40;2.00;;;2.00;;
36221;SDS011;22266;52.340;4.962;2022-09-20T06:04:22;4.00;;;1.75;;
36221;SDS011;22266;52.340;4.962;2022-09-20T06:07:12;6.00;;;5.25;;
36221;SDS011;22266;52.340;4.962;2022-09-20T06:12:50;1.00;;;1.00;;
36221;SDS011;22266;52.340;4.962;2022-09-20T06:15:34;5.00;;;5.00;;
36221;SDS011;22266;52.340;4.962;2022-09-20T06:18:19;5.00;;;4.00;;
36221;SDS011;22266;52.340;4.962;2022-09-20T06:23:40;3.75;;;3.75;;
36221;SDS011;22266;52.340;4.962;2022-09-20T06:26:09;3.50;;;3.50;;
36221;SDS011;22266;52.340;4.962;2022-09-20T06:28:46;3.25;;;3.25;;
36221;SDS011;22266;52.340;4.962;2022-09-20T06:31:24;3.00;;;3.00;;
36221;SDS011;22266;52.340;4.962;2022-09-20T06:36:36;3.50;;;3.50;;
36221;SDS011;22266;52.340;4.962;2022-09-20T06:42:24;4.00;;;1.75;;
36221;SDS011;22266;52.340;4.962;2022-09-20T06:44:52;1.75;;;1.75;;
36221;SDS011;22266;52.340;4.962;2022-09-20T06:47:19;3.00;;;2.75;;
36221;SDS011;22266;52.340;4.962;2022-09-20T06:49:46;3.25;;;1.75;;
36221;SDS011;22266;52.340;4.962;2022-09-20T06:52:19;2.00;;;2.00;;
36221;SDS011;22266;52.340;4.962;2022-09-20T06:54:51;3.00;;;3.00;;
36221;SDS011;22266;52.340;4.962;2022-09-20T06:57:26;2.25;;;2.00;;
36221;SDS011;22266;52.340;4.962;2022-09-20T06:59:58;3.25;;;3.25;;
36221;SDS011;22266;52.340;4.962;2022-09-20T07:02:24;2.00;;;2.00;;
36221;SDS011;22266;52.340;4.962;2022-09-20T07:04:52;2.00;;;2.00;;
36221;SDS011;22266;52.340;4.962;2022-09-20T07:07:24;3.00;;;3.00;;
36221;SDS011;22266;52.340;4.962;2022-09-20T07:09:50;3.00;;;3.00;;
36221;SDS011;22266;52.340;4.962;2022-09-20T07:12:17;2.67;;;2.00;;
36221;SDS011;22266;52.340;4.962;2022-09-20T07:14:43;2.33;;;2.00;;
36221;SDS011;22266;52.340;4.962;2022-09-20T07:17:10;0.00;;;0.00;;
36221;SDS011;22266;52.340;4.962;2022-09-20T07:19:37;1.00;;;1.00;;
36221;SDS011;22266;52.340;4.962;2022-09-20T07:22:03;2.00;;;2.00;;
36221;SDS011;22266;52.340;4.962;2022-09-20T07:24:30;2.00;;;0.67;;
36221;SDS011;22266;52.340;4.962;2022-09-20T07:27:01;0.00;;;0.00;;
36221;SDS011;22266;52.340;4.962;2022-09-20T07:29:30;0.00;;;0.00;;
36221;SDS011;22266;52.340;4.962;2022-09-20T07:31:56;0.33;;;0.33;;
36221;SDS011;22266;52.340;4.962;2022-09-20T07:34:23;0.00;;;0.00;;
36221;SDS011;22266;52.340;4.962;2022-09-20T07:36:53;0.00;;;0.00;;
36221;SDS011;22266;52.340;4.962;2022-09-20T07:39:19;0.00;;;0.00;;
36221;SDS011;22266;52.340;4.962;2022-09-20T07:41:46;0.33;;;0.33;;
36221;SDS011;22266;52.340;4.962;2022-09-20T07:44:16;0.00;;;0.00;;
36221;SDS011;22266;52.340;4.962;2022-09-20T07:46:53;2.00;;;0.67;;
36221;SDS011;22266;52.340;4.962;2022-09-20T07:49:22;0.00;;;0.00;;
36221;SDS011;22266;52.340;4.962;2022-09-20T07:51:51;0.00;;;0.00;;
36221;SDS011;22266;52.340;4.962;2022-09-20T07:54:19;1.00;;;1.00;;
36221;SDS011;22266;52.340;4.962;2022-09-20T07:56:45;0.67;;;0.00;;
36221;SDS011;22266;52.340;4.962;2022-09-20T07:59:12;0.00;;;0.00;;
36221;SDS011;22266;52.340;4.962;2022-09-20T08:01:40;0.00;;;0.00;;
36221;SDS011;22266;52.340;4.962;2022-09-20T08:04:07;0.33;;;0.33;;
36221;SDS011;22266;52.340;4.962;2022-09-20T08:06:35;0.00;;;0.00;;
36221;SDS011;22266;52.340;4.962;2022-09-20T08:09:03;0.00;;;0.00;;
36221;SDS011;22266;52.340;4.962;2022-09-20T08:11:36;0.33;;;0.00;;
36221;SDS011;22266;52.340;4.962;2022-09-20T08:14:04;0.00;;;0.00;;
36221;SDS011;22266;52.340;4.962;2022-09-20T08:16:41;0.00;;;0.00;;
36221;SDS011;22266;52.340;4.962;2022-09-20T08:19:13;1.00;;;0.00;;
36221;SDS011;22266;52.340;4.962;2022-09-20T08:21:44;0.00;;;0.00;;
36221;SDS011;22266;52.340;4.962;2022-09-20T08:24:12;0.00;;;0.00;;
36221;SDS011;22266;52.340;4.962;2022-09-20T08:26:38;0.00;;;0.00;;
36221;SDS011;22266;52.340;4.962;2022-09-20T08:29:05;0.00;;;0.00;;
36221;SDS011;22266;52.340;4.962;2022-09-20T08:31:32;0.00;;;0.00;;
36221;SDS011;22266;52.340;4.962;2022-09-20T08:34:05;0.00;;;0.00;;
36221;SDS011;22266;52.340;4.962;2022-09-20T08:36:34;0.00;;;0.00;;
36221;SDS011;22266;52.340;4.962;2022-09-20T08:39:04;1.00;;;0.00;;
36221;SDS011;22266;52.340;4.962;2022-09-20T08:45:02;0.00;;;0.00;;
36221;SDS011;22266;52.340;4.962;2022-09-20T08:47:55;2.67;;;1.00;;
36221;SDS011;22266;52.340;4.962;2022-09-20T08:50:25;0.00;;;0.00;;
36221;SDS011;22266;52.340;4.962;2022-09-20T08:52:53;1.00;;;1.00;;
36221;SDS011;22266;52.340;4.962;2022-09-20T08:55:26;0.00;;;0.00;;
36221;SDS011;22266;52.340;4.962;2022-09-20T08:58:01;0.00;;;0.00;;
36221;SDS011;22266;52.340;4.962;2022-09-20T09:00:34;0.00;;;0.00;;
36221;SDS011;22266;52.340;4.962;2022-09-20T09:03:03;2.00;;;0.00;;
36221;SDS011;22266;52.340;4.962;2022-09-20T09:05:53;0.00;;;0.00;;
36221;SDS011;22266;52.340;4.962;2022-09-20T09:08:27;1.00;;;0.00;;
36221;SDS011;22266;52.340;4.962;2022-09-20T09:11:07;0.00;;;0.00;;
36221;SDS011;22266;52.340;4.962;2022-09-20T09:13:46;0.00;;;0.00;;
36221;SDS011;22266;52.340;4.962;2022-09-20T09:16:18;1.00;;;1.00;;
36221;SDS011;22266;52.340;4.962;2022-09-20T09:18:52;0.00;;;0.00;;
36221;SDS011;22266;52.340;4.962;2022-09-20T09:21:21;0.00;;;0.00;;
36221;SDS011;22266;52.340;4.962;2022-09-20T09:24:03;0.00;;;0.00;;
36221;SDS011;22266;52.340;4.962;2022-09-20T09:26:38;0.00;;;0.00;;
36221;SDS011;22266;52.340;4.962;2022-09-20T09:29:07;0.00;;;0.00;;
36221;SDS011;22266;52.340;4.962;2022-09-20T09:31:36;0.00;;;0.00;;
36221;SDS011;22266;52.340;4.962;2022-09-20T09:34:16;1.00;;;1.00;;
36221;SDS011;22266;52.340;4.962;2022-09-20T09:36:48;0.00;;;0.00;;
36221;SDS011;22266;52.340;4.962;2022-09-20T09:39:16;0.00;;;0.00;;
36221;SDS011;22266;52.340;4.962;2022-09-20T09:41:49;1.00;;;0.00;;
36221;SDS011;22266;52.340;4.962;2022-09-20T09:44:20;1.00;;;0.00;;
36221;SDS011;22266;52.340;4.962;2022-09-20T09:46:53;0.00;;;0.00;;
36221;SDS011;22266;52.340;4.962;2022-09-20T09:49:22;0.00;;;0.00;;
36221;SDS011;22266;52.340;4.962;2022-09-20T09:54:22;0.00;;;0.00;;
36221;SDS011;22266;52.340;4.962;2022-09-20T10:05:24;0.00;;;0.00;;
36221;SDS011;22266;52.340;4.962;2022-09-20T10:19:48;0.33;;;0.33;;
36221;SDS011;22266;52.340;4.962;2022-09-20T10:22:40;0.33;;;0.33;;
36221;SDS011;22266;52.340;4.962;2022-09-20T10:25:57;0.00;;;0.00;;
36221;SDS011;22266;52.340;4.962;2022-09-20T10:31:53;2.00;;;2.00;;
36221;SDS011;22266;52.340;4.962;2022-09-20T10:42:51;0.00;;;0.00;;
36221;SDS011;22266;52.340;4.962;2022-09-20T10:45:51;0.00;;;0.00;;
36221;SDS011;22266;52.340;4.962;2022-09-20T10:57:24;0.00;;;0.00;;
36221;SDS011;22266;52.340;4.962;2022-09-20T11:08:51;0.00;;;0.00;;
36221;SDS011;22266;52.340;4.962;2022-09-20T11:19:03;0.00;;;0.00;;
36221;SDS011;22266;52.340;4.962;2022-09-20T11:21:40;0.00;;;0.00;;
36221;SDS011;22266;52.340;4.962;2022-09-20T11:24:30;0.00;;;0.00;;
36221;SDS011;22266;52.340;4.962;2022-09-20T11:27:05;0.00;;;0.00;;
36221;SDS011;22266;52.340;4.962;2022-09-20T11:32:37;1.25;;;0.25;;
36221;SDS011;22266;52.340;4.962;2022-09-20T11:35:18;0.00;;;0.00;;
36221;SDS011;22266;52.340;4.962;2022-09-20T11:37:53;1.00;;;1.00;;
36221;SDS011;22266;52.340;4.962;2022-09-20T11:40:52;1.00;;;0.00;;
36221;SDS011;22266;52.340;4.962;2022-09-20T11:43:27;1.00;;;1.00;;
36221;SDS011;22266;52.340;4.962;2022-09-20T11:46:00;0.00;;;0.00;;
36221;SDS011;22266;52.340;4.962;2022-09-20T11:48:33;0.00;;;0.00;;
36221;SDS011;22266;52.340;4.962;2022-09-20T11:51:14;0.00;;;0.00;;
36221;SDS011;22266;52.340;4.962;2022-09-20T11:56:24;0.00;;;0.00;;
36221;SDS011;22266;52.340;4.962;2022-09-20T11:58:57;0.00;;;0.00;;
36221;SDS011;22266;52.340;4.962;2022-09-20T12:04:05;0.00;;;0.00;;
36221;SDS011;22266;52.340;4.962;2022-09-20T12:07:02;1.50;;;0.00;;
36221;SDS011;22266;52.340;4.962;2022-09-20T12:09:37;0.00;;;0.00;;
36221;SDS011;22266;52.340;4.962;2022-09-20T12:15:04;0.00;;;0.00;;
36221;SDS011;22266;52.340;4.962;2022-09-20T12:28:50;0.25;;;0.00;;
36221;SDS011;22266;52.340;4.962;2022-09-20T12:34:27;0.00;;;0.00;;
36221;SDS011;22266;52.340;4.962;2022-09-20T12:39:26;0.00;;;0.00;;
36221;SDS011;22266;52.340;4.962;2022-09-20T12:47:22;0.00;;;0.00;;
36221;SDS011;22266;52.340;4.962;2022-09-20T12:49:58;0.00;;;0.00;;
36221;SDS011;22266;52.340;4.962;2022-09-20T12:52:47;0.75;;;0.75;;
36221;SDS011;22266;52.340;4.962;2022-09-20T12:58:04;0.25;;;0.25;;
36221;SDS011;22266;52.340;4.962;2022-09-20T13:00:38;0.00;;;0.00;;
36221;SDS011;22266;52.340;4.962;2022-09-20T13:08:55;0.00;;;0.00;;
36221;SDS011;22266;52.340;4.962;2022-09-20T13:14:19;0.00;;;0.00;;
36221;SDS011;22266;52.340;4.962;2022-09-20T13:19:42;1.00;;;0.00;;
36221;SDS011;22266;52.340;4.962;2022-09-20T13:22:21;0.75;;;0.00;;
36221;SDS011;22266;52.340;4.962;2022-09-20T13:24:51;0.00;;;0.00;;
36221;SDS011;22266;52.340;4.962;2022-09-20T13:27:27;0.00;;;0.00;;
36221;SDS011;22266;52.340;4.962;2022-09-20T13:32:43;0.00;;;0.00;;
36221;SDS011;22266;52.340;4.962;2022-09-20T13:37:38;0.00;;;0.00;;
36221;SDS011;22266;52.340;4.962;2022-09-20T13:42:59;2.00;;;0.00;;
36221;SDS011;22266;52.340;4.962;2022-09-20T13:45:50;0.00;;;0.00;;
36221;SDS011;22266;52.340;4.962;2022-09-20T13:48:22;0.00;;;0.00;;
36221;SDS011;22266;52.340;4.962;2022-09-20T13:50:50;0.00;;;0.00;;
36221;SDS011;22266;52.340;4.962;2022-09-20T13:53:20;0.25;;;0.25;;
36221;SDS011;22266;52.340;4.962;2022-09-20T13:58:52;0.00;;;0.00;;
36221;SDS011;22266;52.340;4.962;2022-09-20T14:01:29;0.00;;;0.00;;
36221;SDS011;22266;52.340;4.962;2022-09-20T14:04:07;0.00;;;0.00;;
36221;SDS011;22266;52.340;4.962;2022-09-20T14:06:39;0.00;;;0.00;;
36221;SDS011;22266;52.340;4.962;2022-09-20T14:09:12;0.00;;;0.00;;
36221;SDS011;22266;52.340;4.962;2022-09-20T14:11:49;0.00;;;0.00;;
36221;SDS011;22266;52.340;4.962;2022-09-20T14:14:15;0.75;;;0.00;;
36221;SDS011;22266;52.340;4.962;2022-09-20T14:16:47;1.00;;;0.00;;
36221;SDS011;22266;52.340;4.962;2022-09-20T14:19:17;0.00;;;0.00;;
36221;SDS011;22266;52.340;4.962;2022-09-20T14:21:48;0.00;;;0.00;;
36221;SDS011;22266;52.340;4.962;2022-09-20T14:26:43;0.00;;;0.00;;
36221;SDS011;22266;52.340;4.962;2022-09-20T14:29:40;0.00;;;0.00;;
36221;SDS011;22266;52.340;4.962;2022-09-20T14:34:40;0.00;;;0.00;;
36221;SDS011;22266;52.340;4.962;2022-09-20T14:37:14;0.00;;;0.00;;
36221;SDS011;22266;52.340;4.962;2022-09-20T14:40:49;1.75;;;0.00;;
36221;SDS011;22266;52.340;4.962;2022-09-20T14:42:47;0.00;;;0.00;;
36221;SDS011;22266;52.340;4.962;2022-09-20T14:45:31;0.00;;;0.00;;
36221;SDS011;22266;52.340;4.962;2022-09-20T14:48:04;1.00;;;1.00;;
36221;SDS011;22266;52.340;4.962;2022-09-20T14:50:38;0.00;;;0.00;;
36221;SDS011;22266;52.340;4.962;2022-09-20T14:55:57;0.00;;;0.00;;
36221;SDS011;22266;52.340;4.962;2022-09-20T14:58:58;0.00;;;0.00;;
36221;SDS011;22266;52.340;4.962;2022-09-20T15:02:01;0.00;;;0.00;;
36221;SDS011;22266;52.340;4.962;2022-09-20T15:04:30;0.00;;;0.00;;
36221;SDS011;22266;52.340;4.962;2022-09-20T15:07:01;0.00;;;0.00;;
36221;SDS011;22266;52.340;4.962;2022-09-20T15:09:31;0.00;;;0.00;;
36221;SDS011;22266;52.340;4.962;2022-09-20T15:11:59;0.00;;;0.00;;
36221;SDS011;22266;52.340;4.962;2022-09-20T15:14:26;0.00;;;0.00;;
36221;SDS011;22266;52.340;4.962;2022-09-20T15:16:53;0.25;;;0.25;;
36221;SDS011;22266;52.340;4.962;2022-09-20T15:19:20;0.00;;;0.00;;
36221;SDS011;22266;52.340;4.962;2022-09-20T15:21:46;0.00;;;0.00;;
36221;SDS011;22266;52.340;4.962;2022-09-20T15:24:12;0.00;;;0.00;;
36221;SDS011;22266;52.340;4.962;2022-09-20T15:26:39;0.00;;;0.00;;
36221;SDS011;22266;52.340;4.962;2022-09-20T15:29:07;0.00;;;0.00;;
36221;SDS011;22266;52.340;4.962;2022-09-20T15:31:35;0.00;;;0.00;;
36221;SDS011;22266;52.340;4.962;2022-09-20T15:34:04;0.00;;;0.00;;
36221;SDS011;22266;52.340;4.962;2022-09-20T15:36:31;0.00;;;0.00;;
36221;SDS011;22266;52.340;4.962;2022-09-20T15:38:57;0.25;;;0.00;;
36221;SDS011;22266;52.340;4.962;2022-09-20T15:41:24;0.00;;;0.00;;
36221;SDS011;22266;52.340;4.962;2022-09-20T15:43:56;0.00;;;0.00;;
36221;SDS011;22266;52.340;4.962;2022-09-20T15:46:23;0.00;;;0.00;;
36221;SDS011;22266;52.340;4.962;2022-09-20T15:48:52;1.00;;;0.25;;
36221;SDS011;22266;52.340;4.962;2022-09-20T15:51:19;0.00;;;0.00;;
36221;SDS011;22266;52.340;4.962;2022-09-20T15:53:47;0.00;;;0.00;;
36221;SDS011;22266;52.340;4.962;2022-09-20T15:56:27;0.00;;;0.00;;
36221;SDS011;22266;52.340;4.962;2022-09-20T15:58:56;0.50;;;0.50;;
36221;SDS011;22266;52.340;4.962;2022-09-20T16:01:31;0.00;;;0.00;;
36221;SDS011;22266;52.340;4.962;2022-09-20T16:04:05;0.00;;;0.00;;
36221;SDS011;22266;52.340;4.962;2022-09-20T16:06:33;0.00;;;0.00;;
36221;SDS011;22266;52.340;4.962;2022-09-20T16:09:00;0.00;;;0.00;;
36221;SDS011;22266;52.340;4.962;2022-09-20T16:11:27;0.00;;;0.00;;
36221;SDS011;22266;52.340;4.962;2022-09-20T16:13:55;0.00;;;0.00;;
36221;SDS011;22266;52.340;4.962;2022-09-20T16:16:24;0.00;;;0.00;;
36221;SDS011;22266;52.340;4.962;2022-09-20T16:18:51;0.25;;;0.00;;
36221;SDS011;22266;52.340;4.962;2022-09-20T16:21:37;0.00;;;0.00;;
36221;SDS011;22266;52.340;4.962;2022-09-20T16:24:06;0.00;;;0.00;;
36221;SDS011;22266;52.340;4.962;2022-09-20T16:26:34;0.00;;;0.00;;
36221;SDS011;22266;52.340;4.962;2022-09-20T16:29:01;0.00;;;0.00;;
36221;SDS011;22266;52.340;4.962;2022-09-20T16:31:31;0.25;;;0.00;;
36221;SDS011;22266;52.340;4.962;2022-09-20T16:34:06;0.00;;;0.00;;
36221;SDS011;22266;52.340;4.962;2022-09-20T16:36:38;0.00;;;0.00;;
36221;SDS011;22266;52.340;4.962;2022-09-20T16:39:09;0.00;;;0.00;;
36221;SDS011;22266;52.340;4.962;2022-09-20T16:41:36;0.00;;;0.00;;
36221;SDS011;22266;52.340;4.962;2022-09-20T16:44:04;0.00;;;0.00;;
36221;SDS011;22266;52.340;4.962;2022-09-20T16:46:31;3.00;;;1.00;;
36221;SDS011;22266;52.340;4.962;2022-09-20T16:49:05;0.00;;;0.00;;
36221;SDS011;22266;52.340;4.962;2022-09-20T16:51:35;0.00;;;0.00;;
36221;SDS011;22266;52.340;4.962;2022-09-20T16:54:03;1.00;;;0.00;;
36221;SDS011;22266;52.340;4.962;2022-09-20T16:56:39;0.00;;;0.00;;
36221;SDS011;22266;52.340;4.962;2022-09-20T16:59:10;0.00;;;0.00;;
36221;SDS011;22266;52.340;4.962;2022-09-20T17:01:37;0.50;;;0.00;;
36221;SDS011;22266;52.340;4.962;2022-09-20T17:04:05;0.00;;;0.00;;
36221;SDS011;22266;52.340;4.962;2022-09-20T17:06:34;0.00;;;0.00;;
36221;SDS011;22266;52.340;4.962;2022-09-20T17:09:03;0.00;;;0.00;;
36221;SDS011;22266;52.340;4.962;2022-09-20T17:11:32;0.00;;;0.00;;
36221;SDS011;22266;52.340;4.962;2022-09-20T17:14:01;0.00;;;0.00;;
36221;SDS011;22266;52.340;4.962;2022-09-20T17:16:28;0.25;;;0.00;;
36221;SDS011;22266;52.340;4.962;2022-09-20T17:18:57;0.00;;;0.00;;
36221;SDS011;22266;52.340;4.962;2022-09-20T17:21:24;0.00;;;0.00;;
36221;SDS011;22266;52.340;4.962;2022-09-20T17:23:54;0.75;;;0.00;;
36221;SDS011;22266;52.340;4.962;2022-09-20T17:26:35;1.00;;;0.00;;
36221;SDS011;22266;52.340;4.962;2022-09-20T17:29:04;2.00;;;1.00;;
36221;SDS011;22266;52.340;4.962;2022-09-20T17:31:33;0.00;;;0.00;;
36221;SDS011;22266;52.340;4.962;2022-09-20T17:34:02;0.00;;;0.00;;
36221;SDS011;22266;52.340;4.962;2022-09-20T17:36:33;0.00;;;0.00;;
36221;SDS011;22266;52.340;4.962;2022-09-20T17:39:03;0.00;;;0.00;;
36221;SDS011;22266;52.340;4.962;2022-09-20T17:41:30;0.75;;;0.75;;
36221;SDS011;22266;52.340;4.962;2022-09-20T17:43:58;0.00;;;0.00;;
36221;SDS011;22266;52.340;4.962;2022-09-20T17:46:28;0.00;;;0.00;;
36221;SDS011;22266;52.340;4.962;2022-09-20T17:49:00;1.50;;;0.00;;
36221;SDS011;22266;52.340;4.962;2022-09-20T17:51:29;0.75;;;0.00;;
36221;SDS011;22266;52.340;4.962;2022-09-20T17:53:57;2.00;;;0.00;;
36221;SDS011;22266;52.340;4.962;2022-09-20T17:56:25;0.00;;;0.00;;
36221;SDS011;22266;52.340;4.962;2022-09-20T17:58:59;1.33;;;0.00;;
36221;SDS011;22266;52.340;4.962;2022-09-20T18:01:27;2.00;;;0.00;;
36221;SDS011;22266;52.340;4.962;2022-09-20T18:03:56;0.00;;;0.00;;
36221;SDS011;22266;52.340;4.962;2022-09-20T18:06:28;0.00;;;0.00;;
36221;SDS011;22266;52.340;4.962;2022-09-20T18:08:59;0.00;;;0.00;;
36221;SDS011;22266;52.340;4.962;2022-09-20T18:11:32;0.67;;;0.67;;
36221;SDS011;22266;52.340;4.962;2022-09-20T18:14:04;1.33;;;1.33;;
36221;SDS011;22266;52.340;4.962;2022-09-20T18:16:32;0.00;;;0.00;;
36221;SDS011;22266;52.340;4.962;2022-09-20T18:19:00;0.00;;;0.00;;
36221;SDS011;22266;52.340;4.962;2022-09-20T18:21:27;2.00;;;2.00;;
36221;SDS011;22266;52.340;4.962;2022-09-20T18:23:55;1.00;;;1.00;;
36221;SDS011;22266;52.340;4.962;2022-09-20T18:26:23;0.00;;;0.00;;
36221;SDS011;22266;52.340;4.962;2022-09-20T18:31:26;0.00;;;0.00;;
36221;SDS011;22266;52.340;4.962;2022-09-20T18:34:04;1.00;;;1.00;;
36221;SDS011;22266;52.340;4.962;2022-09-20T18:36:33;0.00;;;0.00;;
36221;SDS011;22266;52.340;4.962;2022-09-20T18:39:01;1.00;;;1.00;;
36221;SDS011;22266;52.340;4.962;2022-09-20T18:41:29;1.00;;;1.00;;
36221;SDS011;22266;52.340;4.962;2022-09-20T18:43:58;0.00;;;0.00;;
36221;SDS011;22266;52.340;4.962;2022-09-20T18:46:26;2.00;;;0.00;;
36221;SDS011;22266;52.340;4.962;2022-09-20T18:48:57;1.00;;;1.00;;
36221;SDS011;22266;52.340;4.962;2022-09-20T18:51:30;1.00;;;1.00;;
36221;SDS011;22266;52.340;4.962;2022-09-20T18:54:02;0.67;;;0.67;;
36221;SDS011;22266;52.340;4.962;2022-09-20T18:56:33;0.00;;;0.00;;
36221;SDS011;22266;52.340;4.962;2022-09-20T18:59:01;1.00;;;1.00;;
36221;SDS011;22266;52.340;4.962;2022-09-20T19:04:21;0.00;;;0.00;;
36221;SDS011;22266;52.340;4.962;2022-09-20T19:21:01;2.33;;;1.67;;
36221;SDS011;22266;52.340;4.962;2022-09-20T19:23:50;0.67;;;0.67;;
36221;SDS011;22266;52.340;4.962;2022-09-20T19:26:33;1.00;;;1.00;;
36221;SDS011;22266;52.340;4.962;2022-09-20T19:29:08;0.00;;;0.00;;
36221;SDS011;22266;52.340;4.962;2022-09-20T19:31:44;0.67;;;0.00;;
36221;SDS011;22266;52.340;4.962;2022-09-20T19:34:20;0.00;;;0.00;;
36221;SDS011;22266;52.340;4.962;2022-09-20T19:39:29;0.00;;;0.00;;
36221;SDS011;22266;52.340;4.962;2022-09-20T19:42:04;0.67;;;0.00;;
36221;SDS011;22266;52.340;4.962;2022-09-20T19:44:52;0.00;;;0.00;;
36221;SDS011;22266;52.340;4.962;2022-09-20T19:50:12;0.00;;;0.00;;
36221;SDS011;22266;52.340;4.962;2022-09-20T19:52:42;0.00;;;0.00;;
36221;SDS011;22266;52.340;4.962;2022-09-20T19:55:10;0.00;;;0.00;;
36221;SDS011;22266;52.340;4.962;2022-09-20T19:57:41;0.67;;;0.00;;
36221;SDS011;22266;52.340;4.962;2022-09-20T20:00:13;0.67;;;0.67;;
36221;SDS011;22266;52.340;4.962;2022-09-20T20:02:41;1.00;;;1.00;;
36221;SDS011;22266;52.340;4.962;2022-09-20T20:05:10;1.00;;;0.00;;
36221;SDS011;22266;52.340;4.962;2022-09-20T20:07:47;0.00;;;0.00;;
36221;SDS011;22266;52.340;4.962;2022-09-20T20:13:09;1.00;;;1.00;;
36221;SDS011;22266;52.340;4.962;2022-09-20T20:16:09;1.00;;;0.33;;
36221;SDS011;22266;52.340;4.962;2022-09-20T20:21:21;1.00;;;0.00;;
36221;SDS011;22266;52.340;4.962;2022-09-20T20:26:46;1.00;;;1.00;;
36221;SDS011;22266;52.340;4.962;2022-09-20T20:29:13;1.00;;;1.00;;
36221;SDS011;22266;52.340;4.962;2022-09-20T20:31:39;0.00;;;0.00;;
36221;SDS011;22266;52.340;4.962;2022-09-20T20:34:06;0.00;;;0.00;;
36221;SDS011;22266;52.340;4.962;2022-09-20T20:36:33;2.00;;;0.00;;
36221;SDS011;22266;52.340;4.962;2022-09-20T20:39:00;1.00;;;1.00;;
36221;SDS011;22266;52.340;4.962;2022-09-20T20:41:27;1.00;;;1.00;;
36221;SDS011;22266;52.340;4.962;2022-09-20T20:43:56;1.00;;;1.00;;
36221;SDS011;22266;52.340;4.962;2022-09-20T20:46:23;1.00;;;1.00;;
36221;SDS011;22266;52.340;4.962;2022-09-20T20:48:51;0.00;;;0.00;;
36221;SDS011;22266;52.340;4.962;2022-09-20T20:51:18;0.67;;;0.67;;
36221;SDS011;22266;52.340;4.962;2022-09-20T20:53:47;0.00;;;0.00;;
36221;SDS011;22266;52.340;4.962;2022-09-20T20:56:22;1.67;;;1.67;;
36221;SDS011;22266;52.340;4.962;2022-09-20T20:58:53;3.33;;;1.00;;